sensor_id;sensor_type;location;lat;lon;timestamp;temperature;humidity
9849;DHT22;4963;51.444;6.528;2023-05-07T00:01:17;16.60;99.90
9849;DHT22;4963;51.444;6.528;2023-05-07T00:03:45;16.60;99.90
9849;DHT22;4963;51.444;6.528;2023-05-07T00:06:12;16.70;99.90
9849;DHT22;4963;51.444;6.528;2023-05-07T00:08:39;16.80;99.90
9849;DHT22;4963;51.444;6.528;2023-05-07T00:11:06;16.70;99.90
9849;DHT22;4963;51.444;6.528;2023-05-07T00:13:33;16.70;99.90
9849;DHT22;4963;51.444;6.528;2023-05-07T00:16:01;16.60;99.90
9849;DHT22;4963;51.444;6.528;2023-05-07T00:18:27;16.60;99.90
9849;DHT22;4963;51.444;6.528;2023-05-07T00:20:56;16.50;99.90
9849;DHT22;4963;51.444;6.528;2023-05-07T00:23:23;16.50;99.90
9849;DHT22;4963;51.444;6.528;2023-05-07T00:25:49;16.50;99.90
9849;DHT22;4963;51.444;6.528;2023-05-07T00:28:16;16.50;99.90
9849;DHT22;4963;51.444;6.528;2023-05-07T00:30:43;16.40;99.90
9849;DHT22;4963;51.444;6.528;2023-05-07T00:33:10;16.40;99.90
9849;DHT22;4963;51.444;6.528;2023-05-07T00:35:36;16.30;99.90
9849;DHT22;4963;51.444;6.528;2023-05-07T00:38:05;16.30;99.90
9849;DHT22;4963;51.444;6.528;2023-05-07T00:40:31;16.30;99.90
9849;DHT22;4963;51.444;6.528;2023-05-07T00:42:58;16.30;99.90
9849;DHT22;4963;51.444;6.528;2023-05-07T00:45:27;16.30;99.90
9849;DHT22;4963;51.444;6.528;2023-05-07T00:47:54;16.30;99.90
9849;DHT22;4963;51.444;6.528;2023-05-07T00:50:22;16.30;99.90
9849;DHT22;4963;51.444;6.528;2023-05-07T00:52:49;16.30;99.90
9849;DHT22;4963;51.444;6.528;2023-05-07T00:55:17;16.30;99.90
9849;DHT22;4963;51.444;6.528;2023-05-07T00:57:44;16.40;99.90
9849;DHT22;4963;51.444;6.528;2023-05-07T01:00:12;16.30;99.90
9849;DHT22;4963;51.444;6.528;2023-05-07T01:02:39;16.40;99.90
9849;DHT22;4963;51.444;6.528;2023-05-07T01:05:08;16.40;99.90
9849;DHT22;4963;51.444;6.528;2023-05-07T01:07:37;16.30;99.90
9849;DHT22;4963;51.444;6.528;2023-05-07T01:10:06;16.40;99.90
9849;DHT22;4963;51.444;6.528;2023-05-07T01:12:35;16.30;99.90
9849;DHT22;4963;51.444;6.528;2023-05-07T01:15:02;16.30;99.90
9849;DHT22;4963;51.444;6.528;2023-05-07T01:17:33;16.30;99.90
9849;DHT22;4963;51.444;6.528;2023-05-07T01:20:00;16.30;99.90
9849;DHT22;4963;51.444;6.528;2023-05-07T01:22:30;16.30;99.90
9849;DHT22;4963;51.444;6.528;2023-05-07T01:24:58;16.30;99.90
9849;DHT22;4963;51.444;6.528;2023-05-07T01:27:27;16.30;99.90
9849;DHT22;4963;51.444;6.528;2023-05-07T01:29:54;16.30;99.90
9849;DHT22;4963;51.444;6.528;2023-05-07T01:32:26;16.30;99.90
9849;DHT22;4963;51.444;6.528;2023-05-07T01:34:54;16.30;99.90
9849;DHT22;4963;51.444;6.528;2023-05-07T01:37:22;16.30;99.90
9849;DHT22;4963;51.444;6.528;2023-05-07T01:39:52;16.20;99.90
9849;DHT22;4963;51.444;6.528;2023-05-07T01:42:19;16.30;99.90
9849;DHT22;4963;51.444;6.528;2023-05-07T01:44:46;16.30;99.90
9849;DHT22;4963;51.444;6.528;2023-05-07T01:47:13;16.30;99.90
9849;DHT22;4963;51.444;6.528;2023-05-07T01:49:42;16.20;99.90
9849;DHT22;4963;51.444;6.528;2023-05-07T01:52:10;16.20;99.90
9849;DHT22;4963;51.444;6.528;2023-05-07T01:54:37;16.20;99.90
9849;DHT22;4963;51.444;6.528;2023-05-07T01:57:05;16.20;99.90
9849;DHT22;4963;51.444;6.528;2023-05-07T01:59:32;16.20;99.90
9849;DHT22;4963;51.444;6.528;2023-05-07T02:01:58;16.10;99.90
9849;DHT22;4963;51.444;6.528;2023-05-07T02:04:26;16.20;99.90
9849;DHT22;4963;51.444;6.528;2023-05-07T02:06:52;16.10;99.90
9849;DHT22;4963;51.444;6.528;2023-05-07T02:09:19;16.00;99.90
9849;DHT22;4963;51.444;6.528;2023-05-07T02:11:46;16.00;99.90
9849;DHT22;4963;51.444;6.528;2023-05-07T02:14:14;15.90;99.90
9849;DHT22;4963;51.444;6.528;2023-05-07T02:16:41;15.90;99.90
9849;DHT22;4963;51.444;6.528;2023-05-07T02:19:08;16.00;99.90
9849;DHT22;4963;51.444;6.528;2023-05-07T02:21:35;15.80;99.90
9849;DHT22;4963;51.444;6.528;2023-05-07T02:24:02;15.80;99.90
9849;DHT22;4963;51.444;6.528;2023-05-07T02:26:28;15.80;99.90
9849;DHT22;4963;51.444;6.528;2023-05-07T02:28:55;15.80;99.90
9849;DHT22;4963;51.444;6.528;2023-05-07T02:31:23;15.80;99.90
9849;DHT22;4963;51.444;6.528;2023-05-07T02:33:50;15.80;99.90
9849;DHT22;4963;51.444;6.528;2023-05-07T02:36:17;15.80;99.90
9849;DHT22;4963;51.444;6.528;2023-05-07T02:38:43;15.80;99.90
9849;DHT22;4963;51.444;6.528;2023-05-07T02:41:10;15.80;99.90
9849;DHT22;4963;51.444;6.528;2023-05-07T02:43:37;15.80;99.90
9849;DHT22;4963;51.444;6.528;2023-05-07T02:46:04;15.80;99.90
9849;DHT22;4963;51.444;6.528;2023-05-07T02:48:33;15.80;99.90
9849;DHT22;4963;51.444;6.528;2023-05-07T02:51:00;15.80;99.90
9849;DHT22;4963;51.444;6.528;2023-05-07T02:53:27;15.70;99.90
9849;DHT22;4963;51.444;6.528;2023-05-07T02:55:55;15.70;99.90
9849;DHT22;4963;51.444;6.528;2023-05-07T02:58:22;15.70;99.90
9849;DHT22;4963;51.444;6.528;2023-05-07T03:00:49;15.70;99.90
9849;DHT22;4963;51.444;6.528;2023-05-07T03:03:16;15.70;99.90
9849;DHT22;4963;51.444;6.528;2023-05-07T03:05:45;15.70;99.90
9849;DHT22;4963;51.444;6.528;2023-05-07T03:08:11;15.80;99.90
9849;DHT22;4963;51.444;6.528;2023-05-07T03:10:38;15.70;99.90
9849;DHT22;4963;51.444;6.528;2023-05-07T03:13:05;15.70;99.90
9849;DHT22;4963;51.444;6.528;2023-05-07T03:15:32;15.70;99.90
9849;DHT22;4963;51.444;6.528;2023-05-07T03:17:59;15.70;99.90
9849;DHT22;4963;51.444;6.528;2023-05-07T03:20:25;15.70;99.90
9849;DHT22;4963;51.444;6.528;2023-05-07T03:22:53;15.60;99.90
9849;DHT22;4963;51.444;6.528;2023-05-07T03:25:20;15.60;99.90
9849;DHT22;4963;51.444;6.528;2023-05-07T03:27:47;15.50;99.90
9849;DHT22;4963;51.444;6.528;2023-05-07T03:30:14;15.50;99.90
9849;DHT22;4963;51.444;6.528;2023-05-07T03:32:41;15.50;99.90
9849;DHT22;4963;51.444;6.528;2023-05-07T03:35:07;15.60;99.90
9849;DHT22;4963;51.444;6.528;2023-05-07T03:37:35;15.60;99.90
9849;DHT22;4963;51.444;6.528;2023-05-07T03:40:04;15.60;99.90
9849;DHT22;4963;51.444;6.528;2023-05-07T03:42:31;15.50;99.90
9849;DHT22;4963;51.444;6.528;2023-05-07T03:44:58;15.60;99.90
9849;DHT22;4963;51.444;6.528;2023-05-07T03:47:24;15.60;99.90
9849;DHT22;4963;51.444;6.528;2023-05-07T03:49:51;15.60;99.90
9849;DHT22;4963;51.444;6.528;2023-05-07T03:52:19;15.60;99.90
9849;DHT22;4963;51.444;6.528;2023-05-07T03:54:51;15.50;99.90
9849;DHT22;4963;51.444;6.528;2023-05-07T03:57:19;15.50;99.90
9849;DHT22;4963;51.444;6.528;2023-05-07T03:59:46;15.50;99.90
9849;DHT22;4963;51.444;6.528;2023-05-07T04:02:12;15.40;99.90
9849;DHT22;4963;51.444;6.528;2023-05-07T04:04:39;15.40;99.90
9849;DHT22;4963;51.444;6.528;2023-05-07T04:07:06;15.40;99.90
9849;DHT22;4963;51.444;6.528;2023-05-07T04:09:33;15.30;99.90
9849;DHT22;4963;51.444;6.528;2023-05-07T04:12:00;15.30;99.90
9849;DHT22;4963;51.444;6.528;2023-05-07T04:14:28;15.40;99.90
9849;DHT22;4963;51.444;6.528;2023-05-07T04:16:55;15.40;99.90
9849;DHT22;4963;51.444;6.528;2023-05-07T04:19:22;15.40;99.90
9849;DHT22;4963;51.444;6.528;2023-05-07T04:21:49;15.40;99.90
9849;DHT22;4963;51.444;6.528;2023-05-07T04:24:16;15.40;99.90
9849;DHT22;4963;51.444;6.528;2023-05-07T04:26:42;15.40;99.90
9849;DHT22;4963;51.444;6.528;2023-05-07T04:29:09;15.40;99.90
9849;DHT22;4963;51.444;6.528;2023-05-07T04:31:38;15.40;99.90
9849;DHT22;4963;51.444;6.528;2023-05-07T04:34:05;15.50;99.90
9849;DHT22;4963;51.444;6.528;2023-05-07T04:36:32;15.50;99.90
9849;DHT22;4963;51.444;6.528;2023-05-07T04:38:59;15.50;99.90
9849;DHT22;4963;51.444;6.528;2023-05-07T04:41:26;15.50;99.90
9849;DHT22;4963;51.444;6.528;2023-05-07T04:43:53;15.50;99.90
9849;DHT22;4963;51.444;6.528;2023-05-07T04:46:20;15.50;99.90
9849;DHT22;4963;51.444;6.528;2023-05-07T04:48:48;15.40;99.90
9849;DHT22;4963;51.444;6.528;2023-05-07T04:51:14;15.40;99.90
9849;DHT22;4963;51.444;6.528;2023-05-07T04:53:41;15.40;99.90
9849;DHT22;4963;51.444;6.528;2023-05-07T04:56:08;15.50;99.90
9849;DHT22;4963;51.444;6.528;2023-05-07T04:58:35;15.40;99.90
9849;DHT22;4963;51.444;6.528;2023-05-07T05:01:02;15.40;99.90
9849;DHT22;4963;51.444;6.528;2023-05-07T05:03:30;15.30;99.90
9849;DHT22;4963;51.444;6.528;2023-05-07T05:05:58;15.40;99.90
9849;DHT22;4963;51.444;6.528;2023-05-07T05:08:25;15.50;99.90
9849;DHT22;4963;51.444;6.528;2023-05-07T05:10:52;15.40;99.90
9849;DHT22;4963;51.444;6.528;2023-05-07T05:13:19;15.60;99.90
9849;DHT22;4963;51.444;6.528;2023-05-07T05:15:46;15.50;99.90
9849;DHT22;4963;51.444;6.528;2023-05-07T05:18:13;15.60;99.90
9849;DHT22;4963;51.444;6.528;2023-05-07T05:20:40;15.70;99.90
9849;DHT22;4963;51.444;6.528;2023-05-07T05:23:08;16.00;99.90
9849;DHT22;4963;51.444;6.528;2023-05-07T05:25:35;16.30;99.90
9849;DHT22;4963;51.444;6.528;2023-05-07T05:28:02;16.80;99.90
9849;DHT22;4963;51.444;6.528;2023-05-07T05:30:29;17.20;99.90
9849;DHT22;4963;51.444;6.528;2023-05-07T05:32:56;17.50;99.90
9849;DHT22;4963;51.444;6.528;2023-05-07T05:35:23;17.70;99.90
9849;DHT22;4963;51.444;6.528;2023-05-07T05:37:49;18.00;99.90
9849;DHT22;4963;51.444;6.528;2023-05-07T05:40:18;18.20;99.90
9849;DHT22;4963;51.444;6.528;2023-05-07T05:42:44;18.50;99.90
9849;DHT22;4963;51.444;6.528;2023-05-07T05:45:11;18.60;99.90
9849;DHT22;4963;51.444;6.528;2023-05-07T05:47:38;18.70;99.90
9849;DHT22;4963;51.444;6.528;2023-05-07T05:50:06;18.70;99.90
9849;DHT22;4963;51.444;6.528;2023-05-07T05:52:33;18.80;99.90
9849;DHT22;4963;51.444;6.528;2023-05-07T05:55:00;18.80;99.90
9849;DHT22;4963;51.444;6.528;2023-05-07T05:57:28;19.00;99.90
9849;DHT22;4963;51.444;6.528;2023-05-07T05:59:55;18.90;99.90
9849;DHT22;4963;51.444;6.528;2023-05-07T06:02:22;18.80;99.90
9849;DHT22;4963;51.444;6.528;2023-05-07T06:04:48;18.80;99.90
9849;DHT22;4963;51.444;6.528;2023-05-07T06:07:15;18.70;99.90
9849;DHT22;4963;51.444;6.528;2023-05-07T06:09:42;18.40;99.90
9849;DHT22;4963;51.444;6.528;2023-05-07T06:12:09;18.20;99.90
9849;DHT22;4963;51.444;6.528;2023-05-07T06:14:37;17.90;99.90
9849;DHT22;4963;51.444;6.528;2023-05-07T06:17:04;17.70;99.90
9849;DHT22;4963;51.444;6.528;2023-05-07T06:19:31;17.50;99.90
9849;DHT22;4963;51.444;6.528;2023-05-07T06:21:58;17.50;99.90
9849;DHT22;4963;51.444;6.528;2023-05-07T06:24:26;17.30;99.90
9849;DHT22;4963;51.444;6.528;2023-05-07T06:26:53;17.30;99.90
9849;DHT22;4963;51.444;6.528;2023-05-07T06:29:20;17.20;99.90
9849;DHT22;4963;51.444;6.528;2023-05-07T06:31:48;17.10;99.90
9849;DHT22;4963;51.444;6.528;2023-05-07T06:34:15;17.00;99.90
9849;DHT22;4963;51.444;6.528;2023-05-07T06:36:42;17.00;99.90
9849;DHT22;4963;51.444;6.528;2023-05-07T06:39:08;17.10;99.90
9849;DHT22;4963;51.444;6.528;2023-05-07T06:41:35;17.10;99.90
9849;DHT22;4963;51.444;6.528;2023-05-07T06:44:02;17.10;99.90
9849;DHT22;4963;51.444;6.528;2023-05-07T06:46:30;17.10;99.90
9849;DHT22;4963;51.444;6.528;2023-05-07T06:48:58;17.10;99.90
9849;DHT22;4963;51.444;6.528;2023-05-07T06:51:25;17.00;99.90
9849;DHT22;4963;51.444;6.528;2023-05-07T06:53:52;16.90;99.90
9849;DHT22;4963;51.444;6.528;2023-05-07T06:56:19;16.90;99.90
9849;DHT22;4963;51.444;6.528;2023-05-07T06:58:46;16.80;99.90
9849;DHT22;4963;51.444;6.528;2023-05-07T07:01:13;16.70;99.90
9849;DHT22;4963;51.444;6.528;2023-05-07T07:03:40;16.70;99.90
9849;DHT22;4963;51.444;6.528;2023-05-07T07:06:08;16.80;99.90
9849;DHT22;4963;51.444;6.528;2023-05-07T07:08:35;16.70;99.90
9849;DHT22;4963;51.444;6.528;2023-05-07T07:11:04;16.60;99.90
9849;DHT22;4963;51.444;6.528;2023-05-07T07:13:31;16.60;99.90
9849;DHT22;4963;51.444;6.528;2023-05-07T07:15:58;16.70;99.90
9849;DHT22;4963;51.444;6.528;2023-05-07T07:18:24;16.90;99.90
9849;DHT22;4963;51.444;6.528;2023-05-07T07:20:51;17.00;99.90
9849;DHT22;4963;51.444;6.528;2023-05-07T07:23:19;17.30;99.90
9849;DHT22;4963;51.444;6.528;2023-05-07T07:25:46;17.80;99.90
9849;DHT22;4963;51.444;6.528;2023-05-07T07:28:13;18.10;99.90
9849;DHT22;4963;51.444;6.528;2023-05-07T07:30:40;18.10;99.90
9849;DHT22;4963;51.444;6.528;2023-05-07T07:33:07;18.20;99.90
9849;DHT22;4963;51.444;6.528;2023-05-07T07:35:34;18.20;99.90
9849;DHT22;4963;51.444;6.528;2023-05-07T07:38:01;18.10;99.90
9849;DHT22;4963;51.444;6.528;2023-05-07T07:40:29;18.10;99.90
9849;DHT22;4963;51.444;6.528;2023-05-07T07:42:56;18.20;99.90
9849;DHT22;4963;51.444;6.528;2023-05-07T07:45:23;18.30;99.90
9849;DHT22;4963;51.444;6.528;2023-05-07T07:47:50;18.40;99.90
9849;DHT22;4963;51.444;6.528;2023-05-07T07:50:17;18.60;99.90
9849;DHT22;4963;51.444;6.528;2023-05-07T07:52:43;18.80;99.90
9849;DHT22;4963;51.444;6.528;2023-05-07T07:55:10;18.80;99.90
9849;DHT22;4963;51.444;6.528;2023-05-07T07:57:38;18.70;99.90
9849;DHT22;4963;51.444;6.528;2023-05-07T08:00:06;18.70;99.90
9849;DHT22;4963;51.444;6.528;2023-05-07T08:02:33;18.70;99.90
9849;DHT22;4963;51.444;6.528;2023-05-07T08:05:00;18.70;99.90
9849;DHT22;4963;51.444;6.528;2023-05-07T08:07:27;18.70;99.90
9849;DHT22;4963;51.444;6.528;2023-05-07T08:09:53;18.60;99.90
9849;DHT22;4963;51.444;6.528;2023-05-07T08:12:20;18.60;99.90
9849;DHT22;4963;51.444;6.528;2023-05-07T08:14:48;18.50;99.90
9849;DHT22;4963;51.444;6.528;2023-05-07T08:17:15;18.70;99.90
9849;DHT22;4963;51.444;6.528;2023-05-07T08:19:42;18.70;99.90
9849;DHT22;4963;51.444;6.528;2023-05-07T08:22:09;18.70;99.90
9849;DHT22;4963;51.444;6.528;2023-05-07T08:24:36;18.70;99.90
9849;DHT22;4963;51.444;6.528;2023-05-07T08:27:03;18.70;99.90
9849;DHT22;4963;51.444;6.528;2023-05-07T08:29:30;18.80;99.90
9849;DHT22;4963;51.444;6.528;2023-05-07T08:31:58;18.90;99.90
9849;DHT22;4963;51.444;6.528;2023-05-07T08:34:25;18.80;99.90
9849;DHT22;4963;51.444;6.528;2023-05-07T08:36:51;18.90;99.90
9849;DHT22;4963;51.444;6.528;2023-05-07T08:39:18;19.00;99.90
9849;DHT22;4963;51.444;6.528;2023-05-07T08:41:45;19.20;99.90
9849;DHT22;4963;51.444;6.528;2023-05-07T08:44:13;19.30;99.90
9849;DHT22;4963;51.444;6.528;2023-05-07T08:46:44;19.50;99.90
9849;DHT22;4963;51.444;6.528;2023-05-07T08:49:15;19.70;99.90
9849;DHT22;4963;51.444;6.528;2023-05-07T08:51:42;19.70;99.90
9849;DHT22;4963;51.444;6.528;2023-05-07T08:54:09;19.80;99.90
9849;DHT22;4963;51.444;6.528;2023-05-07T08:56:37;19.80;99.90
9849;DHT22;4963;51.444;6.528;2023-05-07T08:59:05;19.90;99.90
9849;DHT22;4963;51.444;6.528;2023-05-07T09:01:32;19.80;99.90
9849;DHT22;4963;51.444;6.528;2023-05-07T09:04:01;19.90;99.90
9849;DHT22;4963;51.444;6.528;2023-05-07T09:06:29;19.80;99.90
9849;DHT22;4963;51.444;6.528;2023-05-07T09:08:56;19.90;99.90
9849;DHT22;4963;51.444;6.528;2023-05-07T09:11:26;20.00;99.90
9849;DHT22;4963;51.444;6.528;2023-05-07T09:13:54;20.30;99.90
9849;DHT22;4963;51.444;6.528;2023-05-07T09:16:23;20.50;99.90
9849;DHT22;4963;51.444;6.528;2023-05-07T09:18:52;20.70;99.90
9849;DHT22;4963;51.444;6.528;2023-05-07T09:21:20;20.70;99.90
9849;DHT22;4963;51.444;6.528;2023-05-07T09:23:50;20.60;99.90
9849;DHT22;4963;51.444;6.528;2023-05-07T09:26:17;20.80;99.90
9849;DHT22;4963;51.444;6.528;2023-05-07T09:28:44;21.00;99.90
9849;DHT22;4963;51.444;6.528;2023-05-07T09:31:12;21.10;99.90
9849;DHT22;4963;51.444;6.528;2023-05-07T09:33:39;21.10;99.90
9849;DHT22;4963;51.444;6.528;2023-05-07T09:36:07;21.20;99.90
9849;DHT22;4963;51.444;6.528;2023-05-07T09:38:35;21.30;99.90
9849;DHT22;4963;51.444;6.528;2023-05-07T09:41:04;21.20;99.90
9849;DHT22;4963;51.444;6.528;2023-05-07T09:43:32;21.40;99.90
9849;DHT22;4963;51.444;6.528;2023-05-07T09:46:02;21.50;99.90
9849;DHT22;4963;51.444;6.528;2023-05-07T09:48:30;21.70;99.90
9849;DHT22;4963;51.444;6.528;2023-05-07T09:51:01;21.70;99.90
9849;DHT22;4963;51.444;6.528;2023-05-07T09:53:29;21.70;99.90
9849;DHT22;4963;51.444;6.528;2023-05-07T09:55:57;21.60;99.90
9849;DHT22;4963;51.444;6.528;2023-05-07T09:58:27;21.50;99.90
9849;DHT22;4963;51.444;6.528;2023-05-07T10:00:55;21.50;99.90
9849;DHT22;4963;51.444;6.528;2023-05-07T10:03:24;21.50;99.90
9849;DHT22;4963;51.444;6.528;2023-05-07T10:05:54;21.60;99.90
9849;DHT22;4963;51.444;6.528;2023-05-07T10:08:22;21.50;99.90
9849;DHT22;4963;51.444;6.528;2023-05-07T10:10:49;21.60;99.90
9849;DHT22;4963;51.444;6.528;2023-05-07T10:13:17;21.80;99.90
9849;DHT22;4963;51.444;6.528;2023-05-07T10:15:47;22.00;99.90
9849;DHT22;4963;51.444;6.528;2023-05-07T10:18:15;22.10;99.90
9849;DHT22;4963;51.444;6.528;2023-05-07T10:20:43;22.30;99.90
9849;DHT22;4963;51.444;6.528;2023-05-07T10:23:13;22.30;99.90
9849;DHT22;4963;51.444;6.528;2023-05-07T10:25:41;22.10;99.90
9849;DHT22;4963;51.444;6.528;2023-05-07T10:28:10;22.10;99.90
9849;DHT22;4963;51.444;6.528;2023-05-07T10:30:48;22.00;99.90
9849;DHT22;4963;51.444;6.528;2023-05-07T10:33:23;22.10;99.90
9849;DHT22;4963;51.444;6.528;2023-05-07T10:35:51;22.20;99.90
9849;DHT22;4963;51.444;6.528;2023-05-07T10:38:22;22.00;99.90
9849;DHT22;4963;51.444;6.528;2023-05-07T10:40:50;22.00;99.90
9849;DHT22;4963;51.444;6.528;2023-05-07T10:43:17;21.80;99.90
9849;DHT22;4963;51.444;6.528;2023-05-07T10:46:15;21.90;99.90
9849;DHT22;4963;51.444;6.528;2023-05-07T10:49:06;22.00;99.90
9849;DHT22;4963;51.444;6.528;2023-05-07T10:51:34;22.20;99.90
9849;DHT22;4963;51.444;6.528;2023-05-07T10:54:23;22.30;99.90
9849;DHT22;4963;51.444;6.528;2023-05-07T10:56:52;22.30;99.90
9849;DHT22;4963;51.444;6.528;2023-05-07T10:59:34;22.20;99.90
9849;DHT22;4963;51.444;6.528;2023-05-07T11:02:09;22.20;99.90
9849;DHT22;4963;51.444;6.528;2023-05-07T11:04:37;22.10;99.90
9849;DHT22;4963;51.444;6.528;2023-05-07T11:10:00;22.20;99.90
9849;DHT22;4963;51.444;6.528;2023-05-07T11:12:54;22.20;99.90
9849;DHT22;4963;51.444;6.528;2023-05-07T11:15:41;22.30;99.90
9849;DHT22;4963;51.444;6.528;2023-05-07T11:18:14;22.40;99.90
9849;DHT22;4963;51.444;6.528;2023-05-07T11:20:52;22.40;99.90
9849;DHT22;4963;51.444;6.528;2023-05-07T11:26:44;22.40;99.90
9849;DHT22;4963;51.444;6.528;2023-05-07T11:29:12;22.40;99.90
9849;DHT22;4963;51.444;6.528;2023-05-07T11:31:41;22.20;99.90
9849;DHT22;4963;51.444;6.528;2023-05-07T11:34:11;22.20;99.90
9849;DHT22;4963;51.444;6.528;2023-05-07T11:36:42;22.30;99.90
9849;DHT22;4963;51.444;6.528;2023-05-07T11:39:29;22.30;99.90
9849;DHT22;4963;51.444;6.528;2023-05-07T11:41:57;22.20;99.90
9849;DHT22;4963;51.444;6.528;2023-05-07T11:44:24;22.30;99.90
9849;DHT22;4963;51.444;6.528;2023-05-07T11:46:51;22.30;99.90
9849;DHT22;4963;51.444;6.528;2023-05-07T11:49:25;22.40;99.90
9849;DHT22;4963;51.444;6.528;2023-05-07T11:51:53;22.60;99.90
9849;DHT22;4963;51.444;6.528;2023-05-07T11:54:20;22.70;99.90
9849;DHT22;4963;51.444;6.528;2023-05-07T11:56:47;22.80;99.90
9849;DHT22;4963;51.444;6.528;2023-05-07T11:59:17;22.70;99.90
9849;DHT22;4963;51.444;6.528;2023-05-07T12:01:46;22.90;99.90
9849;DHT22;4963;51.444;6.528;2023-05-07T12:04:13;22.80;99.90
9849;DHT22;4963;51.444;6.528;2023-05-07T12:06:41;22.70;99.90
9849;DHT22;4963;51.444;6.528;2023-05-07T12:09:08;22.70;99.90
9849;DHT22;4963;51.444;6.528;2023-05-07T12:11:37;22.60;99.90
9849;DHT22;4963;51.444;6.528;2023-05-07T12:14:05;22.60;99.90
9849;DHT22;4963;51.444;6.528;2023-05-07T12:16:32;22.70;99.90
9849;DHT22;4963;51.444;6.528;2023-05-07T12:18:59;22.60;99.90
9849;DHT22;4963;51.444;6.528;2023-05-07T12:21:26;22.50;99.90
9849;DHT22;4963;51.444;6.528;2023-05-07T12:23:54;22.50;99.90
9849;DHT22;4963;51.444;6.528;2023-05-07T12:26:21;22.40;99.90
9849;DHT22;4963;51.444;6.528;2023-05-07T12:28:48;22.40;99.90
9849;DHT22;4963;51.444;6.528;2023-05-07T12:31:15;22.40;99.90
9849;DHT22;4963;51.444;6.528;2023-05-07T12:33:42;22.40;99.90
9849;DHT22;4963;51.444;6.528;2023-05-07T12:36:12;22.40;99.90
9849;DHT22;4963;51.444;6.528;2023-05-07T12:38:39;22.40;99.90
9849;DHT22;4963;51.444;6.528;2023-05-07T12:41:09;22.40;99.90
9849;DHT22;4963;51.444;6.528;2023-05-07T12:43:36;22.30;99.90
9849;DHT22;4963;51.444;6.528;2023-05-07T12:46:05;22.20;99.90
9849;DHT22;4963;51.444;6.528;2023-05-07T12:48:32;22.00;99.90
9849;DHT22;4963;51.444;6.528;2023-05-07T12:51:00;21.90;99.90
9849;DHT22;4963;51.444;6.528;2023-05-07T12:53:28;21.90;99.90
9849;DHT22;4963;51.444;6.528;2023-05-07T12:55:56;21.80;99.90
9849;DHT22;4963;51.444;6.528;2023-05-07T12:58:27;21.70;99.90
9849;DHT22;4963;51.444;6.528;2023-05-07T13:00:54;21.70;99.90
9849;DHT22;4963;51.444;6.528;2023-05-07T13:03:25;21.70;99.90
9849;DHT22;4963;51.444;6.528;2023-05-07T13:05:54;21.70;99.90
9849;DHT22;4963;51.444;6.528;2023-05-07T13:08:28;21.80;99.90
9849;DHT22;4963;51.444;6.528;2023-05-07T13:10:56;21.70;99.90
9849;DHT22;4963;51.444;6.528;2023-05-07T13:13:24;21.60;99.90
9849;DHT22;4963;51.444;6.528;2023-05-07T13:15:51;21.70;99.90
9849;DHT22;4963;51.444;6.528;2023-05-07T13:18:18;21.60;99.90
9849;DHT22;4963;51.444;6.528;2023-05-07T13:20:44;21.60;99.90
9849;DHT22;4963;51.444;6.528;2023-05-07T13:23:11;21.60;99.90
9849;DHT22;4963;51.444;6.528;2023-05-07T13:25:38;21.50;99.90
9849;DHT22;4963;51.444;6.528;2023-05-07T13:28:05;21.50;99.90
9849;DHT22;4963;51.444;6.528;2023-05-07T13:30:33;21.50;99.90
9849;DHT22;4963;51.444;6.528;2023-05-07T13:33:00;21.50;99.90
9849;DHT22;4963;51.444;6.528;2023-05-07T13:35:27;21.40;99.90
9849;DHT22;4963;51.444;6.528;2023-05-07T13:37:54;21.50;99.90
9849;DHT22;4963;51.444;6.528;2023-05-07T13:40:21;21.40;99.90
9849;DHT22;4963;51.444;6.528;2023-05-07T13:42:48;21.30;99.90
9849;DHT22;4963;51.444;6.528;2023-05-07T13:45:16;21.30;99.90
9849;DHT22;4963;51.444;6.528;2023-05-07T13:47:44;21.40;99.90
9849;DHT22;4963;51.444;6.528;2023-05-07T13:50:11;21.30;99.90
9849;DHT22;4963;51.444;6.528;2023-05-07T13:52:40;21.20;99.90
9849;DHT22;4963;51.444;6.528;2023-05-07T13:55:08;21.30;99.90
9849;DHT22;4963;51.444;6.528;2023-05-07T13:57:35;21.20;99.90
9849;DHT22;4963;51.444;6.528;2023-05-07T14:00:03;21.20;99.90
9849;DHT22;4963;51.444;6.528;2023-05-07T14:02:30;21.10;99.90
9849;DHT22;4963;51.444;6.528;2023-05-07T14:04:58;21.20;99.90
9849;DHT22;4963;51.444;6.528;2023-05-07T14:07:25;21.20;99.90
9849;DHT22;4963;51.444;6.528;2023-05-07T14:09:52;21.20;99.90
9849;DHT22;4963;51.444;6.528;2023-05-07T14:12:19;21.20;99.90
9849;DHT22;4963;51.444;6.528;2023-05-07T14:14:46;21.10;99.90
9849;DHT22;4963;51.444;6.528;2023-05-07T14:17:15;21.10;99.90
9849;DHT22;4963;51.444;6.528;2023-05-07T14:19:42;21.20;99.90
9849;DHT22;4963;51.444;6.528;2023-05-07T14:22:10;21.20;99.90
9849;DHT22;4963;51.444;6.528;2023-05-07T14:24:37;21.20;99.90
9849;DHT22;4963;51.444;6.528;2023-05-07T14:27:05;21.20;99.90
9849;DHT22;4963;51.444;6.528;2023-05-07T14:29:32;21.20;99.90
9849;DHT22;4963;51.444;6.528;2023-05-07T14:32:00;21.10;99.90
9849;DHT22;4963;51.444;6.528;2023-05-07T14:34:27;21.20;99.90
9849;DHT22;4963;51.444;6.528;2023-05-07T14:36:54;21.10;99.90
9849;DHT22;4963;51.444;6.528;2023-05-07T14:39:23;21.10;99.90
9849;DHT22;4963;51.444;6.528;2023-05-07T14:41:50;21.00;99.90
9849;DHT22;4963;51.444;6.528;2023-05-07T14:44:20;21.00;99.90
9849;DHT22;4963;51.444;6.528;2023-05-07T14:46:46;21.00;99.90
9849;DHT22;4963;51.444;6.528;2023-05-07T14:49:14;21.00;99.90
9849;DHT22;4963;51.444;6.528;2023-05-07T14:51:42;21.00;99.90
9849;DHT22;4963;51.444;6.528;2023-05-07T14:54:09;20.90;99.90
9849;DHT22;4963;51.444;6.528;2023-05-07T14:56:37;20.70;99.90
9849;DHT22;4963;51.444;6.528;2023-05-07T14:59:04;20.70;99.90
9849;DHT22;4963;51.444;6.528;2023-05-07T15:01:31;20.60;99.90
9849;DHT22;4963;51.444;6.528;2023-05-07T15:03:58;20.60;99.90
9849;DHT22;4963;51.444;6.528;2023-05-07T15:06:26;20.50;99.90
9849;DHT22;4963;51.444;6.528;2023-05-07T15:08:53;20.30;99.90
9849;DHT22;4963;51.444;6.528;2023-05-07T15:11:19;20.20;99.90
9849;DHT22;4963;51.444;6.528;2023-05-07T15:13:48;20.10;99.90
9849;DHT22;4963;51.444;6.528;2023-05-07T15:16:15;19.90;99.90
9849;DHT22;4963;51.444;6.528;2023-05-07T15:18:42;19.80;99.90
9849;DHT22;4963;51.444;6.528;2023-05-07T15:21:09;19.80;99.90
9849;DHT22;4963;51.444;6.528;2023-05-07T15:23:36;19.70;99.90
9849;DHT22;4963;51.444;6.528;2023-05-07T15:26:04;19.70;99.90
9849;DHT22;4963;51.444;6.528;2023-05-07T15:28:30;19.70;99.90
9849;DHT22;4963;51.444;6.528;2023-05-07T15:30:59;19.60;99.90
9849;DHT22;4963;51.444;6.528;2023-05-07T15:33:26;19.50;99.90
9849;DHT22;4963;51.444;6.528;2023-05-07T15:35:53;19.50;99.90
9849;DHT22;4963;51.444;6.528;2023-05-07T15:38:24;19.50;99.90
9849;DHT22;4963;51.444;6.528;2023-05-07T15:40:51;19.60;99.90
9849;DHT22;4963;51.444;6.528;2023-05-07T15:43:17;19.50;99.90
9849;DHT22;4963;51.444;6.528;2023-05-07T15:45:44;19.50;99.90
9849;DHT22;4963;51.444;6.528;2023-05-07T15:48:12;19.50;99.90
9849;DHT22;4963;51.444;6.528;2023-05-07T15:50:39;19.70;99.90
9849;DHT22;4963;51.444;6.528;2023-05-07T15:53:06;19.70;99.90
9849;DHT22;4963;51.444;6.528;2023-05-07T15:55:34;19.80;99.90
9849;DHT22;4963;51.444;6.528;2023-05-07T15:58:00;19.80;99.90
9849;DHT22;4963;51.444;6.528;2023-05-07T16:00:29;19.90;99.90
9849;DHT22;4963;51.444;6.528;2023-05-07T16:02:55;19.80;99.90
9849;DHT22;4963;51.444;6.528;2023-05-07T16:05:24;19.90;99.90
9849;DHT22;4963;51.444;6.528;2023-05-07T16:07:50;20.00;99.90
9849;DHT22;4963;51.444;6.528;2023-05-07T16:10:17;19.90;99.90
9849;DHT22;4963;51.444;6.528;2023-05-07T16:12:44;19.90;99.90